createdAt,value
2022-12-19T00:01:36.985Z,101906.13
2022-12-19T00:04:10.093Z,101901.72
2022-12-19T00:06:43.570Z,101889.28
2022-12-19T00:09:12.291Z,101878.69
2022-12-19T00:11:40.088Z,101887.53
2022-12-19T00:14:07.337Z,101893.66
2022-12-19T00:16:33.851Z,101884.81
2022-12-19T00:19:01.608Z,101885.66
2022-12-19T00:21:30.892Z,101872.38
2022-12-19T00:24:00.925Z,101892.72
2022-12-19T00:26:32.619Z,101902.41
2022-12-19T00:29:02.271Z,101897.94
2022-12-19T00:31:31.062Z,101886.41
2022-12-19T00:33:58.024Z,101874.00
2022-12-19T00:36:26.981Z,101867.78
2022-12-19T00:38:56.007Z,101860.63
2022-12-19T00:41:28.556Z,101868.59
2022-12-19T00:43:57.337Z,101868.53
2022-12-19T00:46:24.688Z,101866.66
2022-12-19T00:48:51.215Z,101859.53
2022-12-19T00:51:20.163Z,101849.66
2022-12-19T00:53:48.367Z,101836.22
2022-12-19T00:56:20.987Z,101828.19
2022-12-19T00:58:47.670Z,101818.38
2022-12-19T01:01:21.637Z,101818.38
2022-12-19T01:04:26.165Z,101814.78
2022-12-19T01:06:35.246Z,101813.00
2022-12-19T01:09:02.240Z,101814.72
2022-12-19T01:11:47.307Z,101807.59
2022-12-19T01:14:20.750Z,101807.63
2022-12-19T01:16:50.059Z,101812.91
2022-12-19T01:19:18.607Z,101798.69
2022-12-19T01:21:45.449Z,101798.66
2022-12-19T01:24:12.445Z,101819.00
2022-12-19T01:26:40.621Z,101808.31
2022-12-19T01:29:07.148Z,101806.47
2022-12-19T01:31:33.900Z,101799.34
2022-12-19T01:34:03.093Z,101796.63
2022-12-19T01:36:29.707Z,101782.38
2022-12-19T01:38:57.702Z,101789.44
2022-12-19T01:41:26.326Z,101785.03
2022-12-19T01:44:04.765Z,101783.19
2022-12-19T01:46:50.210Z,101777.91
2022-12-19T01:49:36.089Z,101775.28
2022-12-19T01:52:06.444Z,101768.16
2022-12-19T01:54:40.270Z,101770.72
2022-12-19T01:57:10.834Z,101760.00
2022-12-19T01:59:43.783Z,101759.03
2022-12-19T02:02:18.878Z,101748.38
2022-12-19T02:04:45.563Z,101748.25
2022-12-19T02:07:15.811Z,101744.66
2022-12-19T02:09:44.969Z,101756.16
2022-12-19T02:12:13.301Z,101742.78
2022-12-19T02:14:40.692Z,101746.25
2022-12-19T02:17:29.059Z,101741.69
2022-12-19T02:20:19.738Z,101743.25
2022-12-19T02:23:07.507Z,101722.78
2022-12-19T02:25:48.335Z,101723.56
2022-12-19T02:28:35.339Z,101711.97
2022-12-19T02:31:18.032Z,101706.53
2022-12-19T02:34:29.806Z,101710.72
2022-12-19T02:37:04.056Z,101708.72
2022-12-19T02:39:52.174Z,101696.22
2022-12-19T02:42:30.572Z,101700.47
2022-12-19T02:45:01.187Z,101691.38
2022-12-19T02:47:31.517Z,101695.72
2022-12-19T02:49:59.219Z,101683.28
2022-12-19T02:52:25.781Z,101668.16
2022-12-19T02:54:57.455Z,101667.97
2022-12-19T02:57:41.276Z,101654.63
2022-12-19T03:00:10.541Z,101660.78
2022-12-19T03:03:00.495Z,101666.00
2022-12-19T03:05:34.194Z,101658.00
2022-12-19T03:08:18.946Z,101660.63
2022-12-19T03:10:54.115Z,101644.56
2022-12-19T03:13:37.996Z,101654.22
2022-12-19T03:16:08.543Z,101657.72
2022-12-19T03:18:35.584Z,101655.84
2022-12-19T03:21:05.037Z,101646.88
2022-12-19T03:23:31.688Z,101646.78
2022-12-19T03:26:04.082Z,101634.19
2022-12-19T03:28:39.357Z,101643.06
2022-12-19T03:31:06.907Z,101645.63
2022-12-19T03:33:35.086Z,101633.94
2022-12-19T03:36:06.198Z,101644.50
2022-12-19T03:38:35.042Z,101638.19
2022-12-19T03:41:03.522Z,101635.47
2022-12-19T03:43:31.845Z,101629.19
2022-12-19T03:46:08.936Z,101633.59
2022-12-19T03:48:43.156Z,101619.34
2022-12-19T03:51:16.889Z,101622.84
2022-12-19T03:54:03.072Z,101613.75
2022-12-19T03:57:00.336Z,101618.13
2022-12-19T03:59:41.725Z,101610.06
2022-12-19T04:02:09.841Z,101610.81
2022-12-19T04:04:43.741Z,101600.03
2022-12-19T04:07:13.274Z,101604.38
2022-12-19T04:09:42.474Z,101602.53
2022-12-19T04:12:16.639Z,101608.75
2022-12-19T04:14:43.647Z,101611.28
2022-12-19T04:17:19.046Z,101604.16
2022-12-19T04:19:59.836Z,101595.22
2022-12-19T04:22:32.401Z,101588.97
2022-12-19T04:25:01.318Z,101584.44
2022-12-19T04:27:34.132Z,101592.44
2022-12-19T04:30:02.079Z,101595.94
2022-12-19T04:32:32.683Z,101579.00
2022-12-19T04:35:00.318Z,101585.94
2022-12-19T04:37:26.927Z,101593.94
2022-12-19T04:39:53.396Z,101592.09
2022-12-19T04:42:19.834Z,101589.38
2022-12-19T04:44:46.315Z,101574.25
2022-12-19T04:47:13.406Z,101589.28
2022-12-19T04:49:39.887Z,101579.38
2022-12-19T04:52:06.333Z,101581.91
2022-12-19T04:54:34.662Z,101572.94
2022-12-19T04:57:01.195Z,101578.09
2022-12-19T04:59:27.744Z,101567.34
2022-12-19T05:01:54.483Z,101573.47
2022-12-19T05:04:21.136Z,101562.72
2022-12-19T05:06:47.861Z,101569.75
2022-12-19T05:09:14.295Z,101570.56
2022-12-19T05:11:40.802Z,101568.72
2022-12-19T05:14:07.264Z,101565.94
2022-12-19T05:16:33.791Z,101569.44
2022-12-19T05:19:01.092Z,101557.66
2022-12-19T05:21:27.951Z,101560.13
2022-12-19T05:23:55.018Z,101552.94
2022-12-19T05:26:21.516Z,101553.72
2022-12-19T05:28:48.770Z,101549.22
2022-12-19T05:31:18.547Z,101550.84
2022-12-19T05:33:45.539Z,101549.81
2022-12-19T05:36:14.511Z,101559.41
2022-12-19T05:38:41.360Z,101544.09
2022-12-19T05:41:15.703Z,101544.03
2022-12-19T05:43:46.599Z,101546.47
2022-12-19T05:46:13.191Z,101548.09
2022-12-19T05:48:39.747Z,101548.81
2022-12-19T05:51:06.535Z,101536.16
2022-12-19T05:53:36.384Z,101542.38
2022-12-19T05:56:15.168Z,101558.28
2022-12-19T05:58:42.381Z,101537.59
2022-12-19T06:01:11.884Z,101553.44
2022-12-19T06:03:38.661Z,101547.06
2022-12-19T06:06:08.082Z,101547.63
2022-12-19T06:08:35.206Z,101555.59
2022-12-19T06:11:03.539Z,101553.69
2022-12-19T06:13:30.788Z,101552.72
2022-12-19T06:16:02.584Z,101556.78
2022-12-19T06:18:29.686Z,101550.22
2022-12-19T06:21:03.982Z,101531.97
2022-12-19T06:23:32.555Z,101543.16
2022-12-19T06:26:00.132Z,101530.22
2022-12-19T06:28:27.932Z,101528.13
2022-12-19T06:30:58.935Z,101531.47
2022-12-19T06:33:27.328Z,101533.00
2022-12-19T06:36:15.942Z,101527.34
2022-12-19T06:38:42.508Z,101533.38
2022-12-19T06:41:29.071Z,101543.06
2022-12-19T06:43:59.823Z,101527.81
2022-12-19T06:46:27.013Z,101532.97
2022-12-19T06:48:53.524Z,101538.06
2022-12-19T06:51:20.357Z,101527.09
2022-12-19T06:53:46.942Z,101539.53
2022-12-19T06:56:15.136Z,101540.41
2022-12-19T06:58:42.079Z,101527.44
2022-12-19T07:01:16.659Z,101547.91
2022-12-19T07:03:43.262Z,101532.78
2022-12-19T07:06:09.708Z,101518.97
2022-12-19T07:08:36.149Z,101550.97
2022-12-19T07:11:02.666Z,101531.25
2022-12-19T07:13:29.157Z,101544.34
2022-12-19T07:16:01.430Z,101556.00
2022-12-19T07:18:32.132Z,101550.59
2022-12-19T07:20:58.629Z,101540.69
2022-12-19T07:23:25.160Z,101560.97
2022-12-19T07:25:51.730Z,101552.16
2022-12-19T07:28:18.434Z,101549.19
2022-12-19T07:30:45.168Z,101566.16
2022-12-19T07:33:13.557Z,101540.09
2022-12-19T07:35:42.076Z,101550.59
2022-12-19T07:38:09.077Z,101563.94
2022-12-19T07:40:36.070Z,101548.91
2022-12-19T07:43:04.275Z,101546.13
2022-12-19T07:45:31.251Z,101559.38
2022-12-19T07:48:01.931Z,101560.84
2022-12-19T07:50:29.504Z,101561.63
2022-12-19T07:52:57.629Z,101552.81
2022-12-19T07:55:24.434Z,101560.88
2022-12-19T07:57:50.998Z,101566.13
2022-12-19T08:00:18.668Z,101564.19
2022-12-19T08:02:45.869Z,101564.13
2022-12-19T08:05:12.759Z,101557.47
2022-12-19T08:07:39.807Z,101564.69
2022-12-19T08:10:11.296Z,101563.69
2022-12-19T08:12:38.186Z,101574.22
2022-12-19T08:15:05.779Z,101550.84
2022-12-19T08:17:32.354Z,101574.88
2022-12-19T08:19:59.536Z,101574.72
2022-12-19T08:22:26.167Z,101572.78
2022-12-19T08:24:52.713Z,101579.06
2022-12-19T08:27:19.203Z,101571.66
2022-12-19T08:29:45.786Z,101573.19
2022-12-19T08:32:17.081Z,101576.81
2022-12-19T08:34:46.940Z,101574.78
2022-12-19T08:37:13.576Z,101570.28
2022-12-19T08:39:40.053Z,101569.31
2022-12-19T08:42:06.555Z,101586.38
2022-12-19T08:44:33.000Z,101580.03
2022-12-19T08:46:59.953Z,101587.84
2022-12-19T08:49:26.437Z,101584.22
2022-12-19T08:51:52.911Z,101588.44
2022-12-19T08:54:19.400Z,101585.66
2022-12-19T08:56:47.048Z,101585.66
2022-12-19T08:59:22.892Z,101586.41
2022-12-19T09:01:59.038Z,101574.72
2022-12-19T09:06:01.676Z,101580.94
2022-12-19T09:07:15.687Z,101587.19
2022-12-19T09:09:42.882Z,101577.34
2022-12-19T09:12:09.415Z,101586.25
2022-12-19T09:14:36.071Z,101581.75
2022-12-19T09:17:03.829Z,101589.66
2022-12-19T09:19:32.316Z,101590.53
2022-12-19T09:21:59.239Z,101595.91
2022-12-19T09:24:26.352Z,101596.78
2022-12-19T09:26:53.116Z,101596.78
2022-12-19T09:29:21.845Z,101603.72
2022-12-19T09:31:56.299Z,101600.16
2022-12-19T09:34:33.194Z,101607.28
2022-12-19T09:37:03.801Z,101602.72
2022-12-19T09:39:30.525Z,101600.75
2022-12-19T09:42:29.681Z,101607.69
2022-12-19T09:45:19.784Z,101605.16
2022-12-19T09:47:58.844Z,101600.53
2022-12-19T09:50:43.850Z,101602.09
2022-12-19T09:53:18.057Z,101602.75
2022-12-19T09:55:46.627Z,101596.47
2022-12-19T09:58:36.640Z,101594.66
2022-12-19T10:01:12.001Z,101606.31
2022-12-19T10:03:50.359Z,101600.06
2022-12-19T10:07:09.383Z,101596.47
2022-12-19T10:11:45.744Z,101607.84
2022-12-19T10:12:44.383Z,101599.47
2022-12-19T10:15:33.669Z,101603.75
2022-12-19T10:18:21.660Z,101598.06
2022-12-19T10:21:02.870Z,101604.81
2022-12-19T10:23:50.489Z,101595.50
2022-12-19T10:26:21.173Z,101587.84
2022-12-19T10:29:03.127Z,101596.69
2022-12-19T10:31:58.459Z,101600.03
2022-12-19T10:34:38.563Z,101595.22
2022-12-19T10:37:47.245Z,101597.81
2022-12-19T10:40:31.090Z,101601.38
2022-12-19T10:43:10.852Z,101586.06
2022-12-19T10:45:58.646Z,101585.91
2022-12-19T10:48:30.260Z,101588.50
2022-12-19T10:50:57.404Z,101583.91
2022-12-19T10:53:32.011Z,101588.16
2022-12-19T10:56:11.860Z,101591.03
2022-12-19T10:58:44.281Z,101591.97
2022-12-19T11:01:19.554Z,101590.31
2022-12-19T11:03:51.365Z,101594.84
2022-12-19T11:07:04.511Z,101586.69
2022-12-19T11:09:37.303Z,101589.38
2022-12-19T11:14:24.219Z,101584.84
2022-12-19T11:20:13.857Z,101585.66
2022-12-19T11:28:03.702Z,101584.69
2022-12-19T11:29:37.220Z,101573.81
2022-12-19T11:29:47.125Z,101572.84
2022-12-19T11:30:37.135Z,101584.63
2022-12-19T11:32:42.679Z,101553.22
2022-12-19T11:35:37.125Z,101560.38
2022-12-19T11:38:08.291Z,101566.44
2022-12-19T11:40:49.596Z,101569.97
2022-12-19T11:43:43.617Z,101567.94
2022-12-19T11:46:22.235Z,101573.22
2022-12-19T11:49:10.849Z,101564.06
2022-12-19T11:51:52.494Z,101575.78
2022-12-19T11:54:25.285Z,101573.00
2022-12-19T11:56:51.998Z,101576.44
2022-12-19T11:59:20.123Z,101574.72
2022-12-19T12:02:02.444Z,101571.06
2022-12-19T12:04:29.003Z,101571.94
2022-12-19T12:06:57.592Z,101553.84
2022-12-19T12:14:25.808Z,101565.22
2022-12-19T12:22:25.302Z,101560.81
2022-12-19T12:31:08.293Z,101548.06
2022-12-19T12:31:14.028Z,101552.66
2022-12-19T12:31:27.600Z,101558.03
2022-12-19T12:32:03.191Z,101542.44
2022-12-19T12:32:03.986Z,101538.16
2022-12-19T12:35:40.929Z,101531.34
2022-12-19T12:40:42.501Z,101523.03
2022-12-19T12:43:33.375Z,101517.53
2022-12-19T12:46:01.904Z,101511.34
2022-12-19T12:48:45.591Z,101508.31
2022-12-19T12:51:12.916Z,101508.00
2022-12-19T12:53:44.275Z,101494.53
2022-12-19T12:56:13.581Z,101483.63
2022-12-19T12:58:50.941Z,101487.84
2022-12-19T13:01:35.415Z,101492.38
2022-12-19T13:04:11.168Z,101484.31
2022-12-19T13:06:43.214Z,101478.84
2022-12-19T13:09:09.679Z,101474.34
2022-12-19T13:11:58.593Z,101468.69
2022-12-19T13:14:34.023Z,101475.19
2022-12-19T13:17:01.430Z,101478.66
2022-12-19T13:19:30.614Z,101479.53
2022-12-19T13:22:14.694Z,101475.00
2022-12-19T13:24:42.664Z,101468.78
2022-12-19T13:27:21.369Z,101467.91
2022-12-19T13:30:00.315Z,101457.22
2022-12-19T13:32:33.220Z,101452.97
2022-12-19T13:35:44.601Z,101459.31
2022-12-19T13:39:48.863Z,101443.25
2022-12-19T13:40:43.606Z,101442.38
2022-12-19T13:43:48.049Z,101437.88
2022-12-19T13:46:38.848Z,101444.19
2022-12-19T13:49:18.800Z,101434.31
2022-12-19T13:51:52.209Z,101432.50
2022-12-19T13:54:26.803Z,101428.84
2022-12-19T13:56:55.004Z,101422.63
2022-12-19T13:59:24.912Z,101414.47
2022-12-19T14:01:53.515Z,101413.59
2022-12-19T14:04:30.113Z,101413.41
2022-12-19T14:07:20.563Z,101408.28
2022-12-19T14:11:26.292Z,101415.41
2022-12-19T14:13:45.453Z,101423.47
2022-12-19T14:15:52.007Z,101427.22
2022-12-19T14:18:42.448Z,101420.88
2022-12-19T14:22:05.735Z,101417.41
2022-12-19T14:24:19.950Z,101415.59
2022-12-19T14:28:26.612Z,101405.69
2022-12-19T14:30:28.325Z,101417.25
2022-12-19T14:33:53.579Z,101406.50
2022-12-19T14:36:05.798Z,101411.00
2022-12-19T14:39:24.645Z,101401.00
2022-12-19T14:41:58.811Z,101390.34
2022-12-19T14:52:25.644Z,101398.47
2022-12-19T14:53:08.677Z,101410.91
2022-12-19T14:54:03.319Z,101410.91
2022-12-19T14:54:25.524Z,101412.72
2022-12-19T14:59:03.299Z,101420.97
2022-12-19T15:01:33.707Z,101421.84
2022-12-19T15:04:53.369Z,101428.94
2022-12-19T15:07:07.233Z,101432.78
2022-12-19T15:11:03.851Z,101424.63
2022-12-19T15:14:50.494Z,101424.34
2022-12-19T15:16:07.318Z,101432.59
2022-12-19T15:18:34.025Z,101435.09
2022-12-19T15:21:06.458Z,101437.88
2022-12-19T15:23:32.952Z,101445.44
2022-12-19T15:26:07.430Z,101451.69
2022-12-19T15:28:40.212Z,101443.63
2022-12-19T15:31:17.205Z,101453.59
2022-12-19T15:34:06.772Z,101449.41
2022-12-19T15:36:30.355Z,101453.78
2022-12-19T15:38:56.899Z,101442.06
2022-12-19T15:41:25.079Z,101441.50
2022-12-19T15:44:03.716Z,101429.81
2022-12-19T15:46:32.304Z,101432.59
2022-12-19T15:48:58.836Z,101435.38
2022-12-19T15:51:25.324Z,101418.44
2022-12-19T15:53:51.797Z,101425.81
2022-12-19T15:56:28.494Z,101427.81
2022-12-19T15:58:57.140Z,101421.78
2022-12-19T16:01:24.355Z,101429.81
2022-12-19T16:03:51.549Z,101423.59
2022-12-19T16:06:18.392Z,101422.75
2022-12-19T16:08:44.879Z,101424.56
2022-12-19T16:11:24.739Z,101415.72
2022-12-19T16:13:56.515Z,101412.31
2022-12-19T16:16:23.280Z,101417.97
2022-12-19T16:18:49.789Z,101419.97
2022-12-19T16:21:31.566Z,101430.88
2022-12-19T16:24:00.381Z,101432.09
2022-12-19T16:26:35.757Z,101438.59
2022-12-19T16:29:02.523Z,101445.69
2022-12-19T16:31:29.300Z,101458.78
2022-12-19T16:33:56.139Z,101456.19
2022-12-19T16:36:22.701Z,101454.03
2022-12-19T16:38:49.266Z,101451.19
2022-12-19T16:41:24.205Z,101452.75
2022-12-19T16:43:51.437Z,101443.47
2022-12-19T16:46:21.605Z,101438.19
2022-12-19T16:48:49.018Z,101435.31
2022-12-19T16:51:27.484Z,101420.91
2022-12-19T16:54:00.159Z,101422.63
2022-12-19T16:56:40.760Z,101426.00
2022-12-19T16:59:23.211Z,101424.25
2022-12-19T17:01:51.057Z,101424.25
2022-12-19T17:04:23.461Z,101423.91
2022-12-19T17:06:52.237Z,101417.56
2022-12-19T17:09:21.399Z,101404.03
2022-12-19T17:11:51.712Z,101406.72
2022-12-19T17:14:21.838Z,101410.13
2022-12-19T17:16:48.919Z,101414.38
2022-12-19T17:19:21.149Z,101414.28
2022-12-19T17:21:48.770Z,101410.53
2022-12-19T17:24:15.735Z,101397.97
2022-12-19T17:26:43.492Z,101411.22
2022-12-19T17:29:10.973Z,101429.28
2022-12-19T17:31:39.697Z,101421.66
2022-12-19T17:34:17.432Z,101425.13
2022-12-19T17:36:44.821Z,101422.16
2022-12-19T17:39:23.109Z,101436.31
2022-12-19T17:41:50.579Z,101426.53
2022-12-19T17:44:17.832Z,101428.59
2022-12-19T17:46:45.955Z,101425.31
2022-12-19T17:49:23.066Z,101421.31
2022-12-19T17:51:52.320Z,101423.03
2022-12-19T17:54:20.491Z,101426.09
2022-12-19T17:56:47.549Z,101422.09
2022-12-19T17:59:14.173Z,101433.88
2022-12-19T18:01:41.886Z,101435.88
2022-12-19T18:04:18.130Z,101437.47
2022-12-19T18:06:45.287Z,101430.31
2022-12-19T18:09:22.589Z,101431.38
2022-12-19T18:11:50.122Z,101431.28
2022-12-19T18:14:17.503Z,101431.19
2022-12-19T18:16:45.772Z,101431.38
2022-12-19T18:19:19.980Z,101441.44
2022-12-19T18:21:47.231Z,101434.31
2022-12-19T18:24:16.412Z,101435.00
2022-12-19T18:26:44.440Z,101427.91
2022-12-19T18:29:11.289Z,101426.59
2022-12-19T18:31:39.945Z,101431.72
2022-12-19T18:34:18.974Z,101420.88
2022-12-19T18:36:45.465Z,101419.84
2022-12-19T18:39:26.055Z,101427.81
2022-12-19T18:41:53.843Z,101416.28
2022-12-19T18:44:22.594Z,101417.06
2022-12-19T18:46:51.390Z,101414.88
2022-12-19T18:49:18.295Z,101406.63
2022-12-19T18:51:45.127Z,101414.88
2022-12-19T18:54:18.992Z,101423.97
2022-12-19T18:56:46.079Z,101426.84
2022-12-19T18:59:12.900Z,101405.34
2022-12-19T19:01:43.461Z,101418.44
2022-12-19T19:04:13.031Z,101428.56
2022-12-19T19:06:50.337Z,101429.19
2022-12-19T19:09:19.087Z,101434.47
2022-12-19T19:11:59.535Z,101437.66
2022-12-19T19:14:26.071Z,101437.41
2022-12-19T19:16:53.160Z,101431.25
2022-12-19T19:19:19.920Z,101433.94
2022-12-19T19:21:46.553Z,101445.59
2022-12-19T19:24:16.719Z,101448.53
2022-12-19T19:26:43.232Z,101467.44
2022-12-19T19:29:09.876Z,101464.06
2022-12-19T19:31:40.660Z,101473.09
2022-12-19T19:34:14.451Z,101469.22
2022-12-19T19:36:44.794Z,101471.03
2022-12-19T19:39:11.305Z,101480.47
2022-12-19T19:41:37.791Z,101474.56
2022-12-19T19:44:04.475Z,101468.03
2022-12-19T19:46:32.278Z,101475.25
2022-12-19T19:48:59.067Z,101480.44
2022-12-19T19:51:28.571Z,101469.00
2022-12-19T19:53:55.496Z,101473.78
2022-12-19T19:56:21.952Z,101466.94
2022-12-19T19:58:48.654Z,101477.28
2022-12-19T20:01:15.435Z,101480.22
2022-12-19T20:03:43.210Z,101481.50
2022-12-19T20:06:10.469Z,101478.56
2022-12-19T20:08:40.051Z,101483.69
2022-12-19T20:11:08.872Z,101485.69
2022-12-19T20:13:35.659Z,101491.16
2022-12-19T20:16:04.900Z,101479.78
2022-12-19T20:18:31.592Z,101477.28
2022-12-19T20:20:58.229Z,101484.38
2022-12-19T20:23:25.161Z,101475.72
2022-12-19T20:25:52.097Z,101476.78
2022-12-19T20:28:18.738Z,101477.88
2022-12-19T20:30:45.853Z,101480.84
2022-12-19T20:33:12.347Z,101480.16
2022-12-19T20:35:38.884Z,101478.91
2022-12-19T20:38:05.341Z,101476.16
2022-12-19T20:40:31.844Z,101475.63
2022-12-19T20:42:58.434Z,101465.22
2022-12-19T20:45:24.937Z,101469.56
2022-12-19T20:47:51.438Z,101469.09
2022-12-19T20:50:17.989Z,101470.34
2022-12-19T20:52:44.428Z,101472.25
2022-12-19T20:55:11.025Z,101470.56
2022-12-19T20:57:37.548Z,101471.53
2022-12-19T21:00:06.393Z,101473.44
2022-12-19T21:02:52.501Z,101457.91
2022-12-19T21:05:20.458Z,101473.25
2022-12-19T21:07:47.055Z,101474.41
2022-12-19T21:10:13.906Z,101469.03
2022-12-19T21:12:47.193Z,101462.88
2022-12-19T21:15:14.323Z,101474.78
2022-12-19T21:17:40.798Z,101473.63
2022-12-19T21:20:07.819Z,101476.03
2022-12-19T21:22:34.425Z,101471.47
2022-12-19T21:25:00.961Z,101467.56
2022-12-19T21:27:27.458Z,101466.00
2022-12-19T21:29:53.899Z,101465.47
2022-12-19T21:32:20.388Z,101470.41
2022-12-19T21:34:46.930Z,101475.53
2022-12-19T21:37:13.376Z,101470.16
2022-12-19T21:39:39.942Z,101469.22
2022-12-19T21:42:06.370Z,101475.94
2022-12-19T21:44:32.812Z,101471.34
2022-12-19T21:46:59.362Z,101470.41
2022-12-19T21:49:25.916Z,101483.00
2022-12-19T21:51:52.395Z,101471.84
2022-12-19T21:54:18.957Z,101468.31
2022-12-19T21:56:46.063Z,101472.47
2022-12-19T21:59:15.118Z,101475.84
2022-12-19T22:01:42.477Z,101471.25
2022-12-19T22:04:17.936Z,101473.16
2022-12-19T22:06:44.527Z,101465.94
2022-12-19T22:09:13.931Z,101466.81
2022-12-19T22:11:40.792Z,101461.78
2022-12-19T22:14:08.116Z,101464.84
2022-12-19T22:16:35.642Z,101463.03
2022-12-19T22:19:03.149Z,101451.09
2022-12-19T22:21:29.884Z,101448.91
2022-12-19T22:24:01.282Z,101428.94
2022-12-19T22:26:29.605Z,101435.28
2022-12-19T22:28:57.556Z,101438.06
2022-12-19T22:31:27.132Z,101442.31
2022-12-19T22:33:56.166Z,101436.16
2022-12-19T22:36:28.035Z,101429.88
2022-12-19T22:38:55.893Z,101431.91
2022-12-19T22:41:22.369Z,101435.28
2022-12-19T22:43:49.206Z,101434.69
2022-12-19T22:46:19.848Z,101430.44
2022-12-19T22:48:48.678Z,101426.69
2022-12-19T22:51:16.701Z,101424.97
2022-12-19T22:53:46.355Z,101419.41
2022-12-19T22:56:17.685Z,101407.75
2022-12-19T22:58:47.256Z,101400.75
2022-12-19T23:01:32.388Z,101403.53
2022-12-19T23:04:01.331Z,101404.22
2022-12-19T23:06:29.052Z,101402.97
2022-12-19T23:08:55.962Z,101395.94
2022-12-19T23:11:27.818Z,101404.13
2022-12-19T23:13:54.606Z,101414.00
2022-12-19T23:16:21.100Z,101412.09
2022-12-19T23:18:48.034Z,101413.06
2022-12-19T23:21:19.812Z,101408.81
2022-12-19T23:23:49.444Z,101413.69
2022-12-19T23:26:19.201Z,101421.69
2022-12-19T23:28:51.753Z,101431.38
2022-12-19T23:31:19.000Z,101425.50
2022-12-19T23:33:45.523Z,101431.56
2022-12-19T23:36:11.972Z,101428.03
2022-12-19T23:38:38.967Z,101413.78
2022-12-19T23:41:08.109Z,101410.63
2022-12-19T23:43:36.332Z,101405.50
2022-12-19T23:46:16.865Z,101407.03
2022-12-19T23:48:43.503Z,101411.81
2022-12-19T23:51:16.171Z,101406.53
2022-12-19T23:53:43.154Z,101396.81
2022-12-19T23:56:15.537Z,101391.06
2022-12-19T23:58:43.040Z,101382.22
